Time;durP1;ratioP1;P1;durP2;ratioP2;P2;SDS_P1;SDS_P2;PMS_P1;PMS_P2;Temp;Humidity;BMP_temperature;BMP_pressure;BME280_temperature;BME280_humidity;BME280_pressure;Samples;Min_cycle;Max_cycle;Signal;HPM_P1;HPM_P2
2022/10/05 00:03:39;;;;;;;1.37;1.13;;;;;;;8.53;100.00;97007.53;10468727;28;20238;-63
2022/10/05 00:08:39;;;;;;;1.67;0.97;;;;;;;8.44;100.00;97000.50;10485747;28;20214;-63
2022/10/05 00:13:40;;;;;;;1.43;1.10;;;;;;;8.44;100.00;97008.34;10476373;28;20220;-63
2022/10/05 00:18:44;;;;;;;3.27;1.17;;;;;;;8.54;100.00;96995.28;10462286;28;20200;-62
2022/10/05 00:23:45;;;;;;;1.43;1.10;;;;;;;8.42;100.00;97002.38;10456627;28;20274;-64
2022/10/05 00:28:45;;;;;;;1.87;1.30;;;;;;;8.40;100.00;96988.66;10484929;28;20241;-63
2022/10/05 00:33:46;;;;;;;1.30;1.20;;;;;;;8.39;100.00;96985.22;10487603;28;20203;-65
2022/10/05 00:38:46;;;;;;;2.37;1.20;;;;;;;8.40;100.00;96984.25;10464686;28;20488;-62
2022/10/05 00:44:22;;;;;;;2.43;1.30;;;;;;;8.26;100.00;97002.09;10453436;28;20224;-63
2022/10/05 00:49:47;;;;;;;1.77;1.20;;;;;;;8.12;100.00;96992.88;10483843;28;20550;-63
2022/10/05 00:54:58;;;;;;;3.40;1.50;;;;;;;8.31;100.00;96981.63;10476336;28;20257;-63
2022/10/05 01:00:06;;;;;;;3.33;1.40;;;;;;;8.38;100.00;96982.75;10470944;28;20188;-63
2022/10/05 01:05:25;;;;;;;1.63;1.10;;;;;;;8.18;100.00;96981.91;10470136;28;20226;-63
2022/10/05 01:10:35;;;;;;;1.67;1.00;;;;;;;8.11;100.00;96986.00;10454886;28;20203;-63
2022/10/05 01:16:02;;;;;;;7.10;1.40;;;;;;;8.19;100.00;96988.75;10473461;28;20192;-63
2022/10/05 01:21:15;;;;;;;5.17;1.47;;;;;;;8.19;100.00;96992.22;10458491;28;20315;-62
2022/10/05 01:26:35;;;;;;;2.70;1.30;;;;;;;8.00;100.00;96986.94;10476984;28;20278;-63
2022/10/05 01:31:46;;;;;;;2.23;1.20;;;;;;;8.05;100.00;96974.31;10480234;28;20222;-62
2022/10/05 01:36:56;;;;;;;1.90;1.20;;;;;;;7.89;100.00;96985.25;10453717;28;20211;-65
2022/10/05 01:42:13;;;;;;;5.37;1.60;;;;;;;7.84;100.00;96972.63;10459141;28;20316;-65
2022/10/05 01:47:28;;;;;;;4.90;1.40;;;;;;;7.84;100.00;96962.19;10452180;28;20188;-62
2022/10/05 01:52:47;;;;;;;3.63;1.20;;;;;;;7.85;100.00;96940.34;10474603;28;20284;-63
2022/10/05 01:58:19;;;;;;;2.73;1.20;;;;;;;8.13;100.00;96930.13;10465916;28;20570;-63
2022/10/05 02:03:24;;;;;;;1.90;1.27;;;;;;;7.96;100.00;96942.03;10477766;28;20219;-62
2022/10/05 02:08:34;;;;;;;3.63;1.27;;;;;;;7.83;100.00;96944.88;10443484;28;20196;-62
2022/10/05 02:13:42;;;;;;;4.10;1.20;;;;;;;7.89;100.00;96933.09;10485895;28;20211;-62
2022/10/05 02:18:56;;;;;;;1.00;0.93;;;;;;;7.92;100.00;96927.59;10481013;28;20199;-62
2022/10/05 02:23:59;;;;;;;4.97;1.43;;;;;;;7.97;99.33;96920.19;10460357;22;20242;-61
2022/10/05 02:29:02;;;;;;;2.37;1.27;;;;;;;7.95;98.33;96918.69;10443901;28;20253;-61
2022/10/05 02:34:42;;;;;;;1.40;1.10;;;;;;;8.03;97.39;96919.66;10432871;28;20200;-63
2022/10/05 02:40:16;;;;;;;4.13;1.30;;;;;;;8.08;95.91;96903.59;10446765;28;20571;-65
2022/10/05 02:45:41;;;;;;;1.10;1.00;;;;;;;8.05;95.34;96896.03;10447038;28;20692;-64
2022/10/05 02:50:50;;;;;;;4.00;1.10;;;;;;;8.00;95.43;96908.66;10434321;28;20203;-62
2022/10/05 02:56:05;;;;;;;3.63;1.30;;;;;;;7.98;94.84;96919.25;10429643;28;20219;-64
2022/10/05 03:01:16;;;;;;;12.33;1.23;;;;;;;7.91;95.45;96920.72;10448085;28;20628;-62
2022/10/05 03:06:26;;;;;;;1.83;1.00;;;;;;;7.92;94.56;96913.75;10455037;28;20298;-63
2022/10/05 03:11:40;;;;;;;3.20;1.30;;;;;;;7.82;95.48;96919.75;10419740;28;20192;-62
2022/10/05 03:16:51;;;;;;;3.80;1.10;;;;;;;7.86;95.19;96908.09;10426613;28;20196;-64
2022/10/05 03:21:58;;;;;;;2.10;1.20;;;;;;;8.07;94.58;96907.19;10454497;28;20310;-61
2022/10/05 03:27:24;;;;;;;3.23;1.10;;;;;;;8.06;94.22;96882.03;10438817;28;20345;-64
2022/10/05 03:32:50;;;;;;;4.20;1.07;;;;;;;8.13;92.79;96880.53;10434977;28;20219;-64
2022/10/05 03:38:10;;;;;;;2.20;1.33;;;;;;;8.13;93.36;96877.94;10454959;28;20200;-62
2022/10/05 03:43:20;;;;;;;2.10;1.30;;;;;;;7.96;94.21;96886.41;10436479;28;20221;-63
2022/10/05 03:48:29;;;;;;;1.90;1.10;;;;;;;7.98;94.79;96897.56;10452218;28;20740;-64
2022/10/05 03:53:39;;;;;;;1.53;1.30;;;;;;;7.85;95.09;96897.78;10454297;28;20684;-65
2022/10/05 03:58:57;;;;;;;3.60;1.50;;;;;;;7.80;95.83;96900.81;10450455;28;20279;-61
2022/10/05 04:04:02;;;;;;;5.97;1.50;;;;;;;7.79;96.11;96909.56;10452081;28;20572;-64
2022/10/05 04:09:17;;;;;;;3.67;1.70;;;;;;;7.79;96.05;96901.75;10435302;28;20338;-63
2022/10/05 04:14:35;;;;;;;3.70;1.40;;;;;;;7.88;95.62;96894.91;10452578;28;20298;-65
2022/10/05 04:19:52;;;;;;;2.87;1.33;;;;;;;7.93;95.54;96889.28;10452924;28;20674;-64
2022/10/05 04:25:14;;;;;;;3.63;1.20;;;;;;;7.99;95.16;96883.53;10453371;28;20235;-64
2022/10/05 04:30:18;;;;;;;4.10;1.20;;;;;;;7.99;95.13;96888.75;10434262;28;20650;-64
2022/10/05 04:35:48;;;;;;;4.50;1.60;;;;;;;7.90;96.25;96893.03;10436457;28;20208;-62
2022/10/05 04:41:07;;;;;;;1.70;1.33;;;;;;;7.84;96.62;96894.38;10413077;28;20565;-61
2022/10/05 04:46:32;;;;;;;2.60;1.27;;;;;;;7.97;96.61;96875.03;10451969;28;20622;-60
2022/10/05 04:51:56;;;;;;;2.40;1.43;;;;;;;7.96;97.25;96895.09;10431632;28;20224;-63
2022/10/05 04:57:09;;;;;;;2.23;1.40;;;;;;;8.08;96.71;96893.16;10435444;28;20196;-63
2022/10/05 05:02:23;;;;;;;4.47;1.80;;;;;;;8.18;96.05;96893.19;10433974;28;20298;-64
2022/10/05 05:07:27;;;;;;;3.73;1.93;;;;;;;8.28;94.86;96885.34;10450356;28;20666;-63
2022/10/05 05:12:55;;;;;;;2.13;1.40;;;;;;;8.38;94.50;96886.16;10432432;28;20265;-63
2022/10/05 05:18:14;;;;;;;4.63;1.67;;;;;;;8.36;94.14;96882.84;10428680;28;20693;-62
2022/10/05 05:23:31;;;;;;;2.10;1.40;;;;;;;8.36;94.14;96898.50;10444567;28;20227;-65
2022/10/05 05:28:38;;;;;;;2.20;1.30;;;;;;;8.44;93.34;96895.25;10428385;28;20192;-65
2022/10/05 05:33:55;;;;;;;5.77;1.30;;;;;;;8.30;94.67;96931.22;10435803;28;20702;-65
2022/10/05 05:39:27;;;;;;;4.33;1.80;;;;;;;8.03;96.76;96955.38;10408497;28;20190;-64
2022/10/05 05:44:35;;;;;;;3.00;1.60;;;;;;;7.94;98.24;96970.03;10439380;28;20224;-64
2022/10/05 05:49:57;;;;;;;2.70;1.80;;;;;;;7.61;100.00;96990.25;10431404;28;20197;-64
2022/10/05 05:55:17;;;;;;;4.43;1.77;;;;;;;7.16;100.00;96995.75;10422930;28;20224;-65
2022/10/05 06:00:31;;;;;;;7.93;1.80;;;;;;;7.25;100.00;96986.38;10447744;28;20185;-63
2022/10/05 06:05:39;;;;;;;3.77;2.10;;;;;;;6.99;100.00;97002.38;10446440;28;20219;-63
2022/10/05 06:10:47;;;;;;;4.60;1.97;;;;;;;7.09;100.00;96992.00;10421873;28;20980;-65
2022/10/05 06:15:53;;;;;;;5.23;4.77;;;;;;;7.19;100.00;96992.09;10428475;28;20216;-65
2022/10/05 06:21:01;;;;;;;3.30;1.70;;;;;;;7.62;100.00;96998.88;10430403;28;20196;-65
2022/10/05 06:26:11;;;;;;;13.97;7.20;;;;;;;8.00;100.00;96990.34;10445414;28;20594;-64
2022/10/05 06:31:37;;;;;;;3.97;2.93;;;;;;;8.39;100.00;96977.41;10447813;28;20180;-63
2022/10/05 06:37:09;;;;;;;4.60;1.97;;;;;;;8.85;100.00;96966.41;10449123;28;20200;-64
2022/10/05 06:42:22;;;;;;;2.93;1.90;;;;;;;9.61;100.00;96948.03;10434260;28;20216;-61
2022/10/05 06:47:50;;;;;;;5.00;2.30;;;;;;;10.26;98.22;96933.19;10434934;28;20197;-61
2022/10/05 06:53:24;;;;;;;2.80;1.70;;;;;;;10.68;93.60;96909.06;10444071;28;20207;-62
2022/10/05 06:58:35;;;;;;;1.57;1.47;;;;;;;10.81;92.22;96885.91;10469278;28;20710;-62
2022/10/05 07:03:53;;;;;;;7.60;1.50;;;;;;;11.17;89.77;96866.59;10452602;28;20223;-62
2022/10/05 07:08:56;;;;;;;1.77;1.27;;;;;;;12.04;85.38;96819.97;10442644;28;20234;-62
2022/10/05 07:14:11;;;;;;;4.72;1.45;;;;;;;12.89;80.55;96775.88;11032374;22;20622;-62
2022/10/05 07:19:51;;;;;;;2.38;1.15;;;;;;;13.37;78.00;96772.25;10446354;28;20740;-62
2022/10/05 07:25:21;;;;;;;2.70;1.60;;;;;;;14.00;76.32;96771.38;10449129;28;20220;-62
2022/10/05 07:30:23;;;;;;;2.35;1.40;;;;;;;13.90;75.42;96764.53;10450427;28;20192;-63
2022/10/05 07:41:18;;;;;;;4.65;1.60;;;;;;;15.05;72.42;96764.41;10435675;28;20738;-62
2022/10/05 07:46:25;;;;;;;3.10;1.23;;;;;;;16.56;66.70;96724.84;10449572;28;20204;-62
2022/10/05 07:51:35;;;;;;;2.45;1.35;;;;;;;17.34;62.02;96682.25;10449306;28;20220;-63
2022/10/05 07:56:39;;;;;;;5.55;1.35;;;;;;;17.94;62.85;96716.00;10448998;28;20208;-62
2022/10/05 08:01:44;;;;;;;1.77;1.25;;;;;;;18.89;60.39;96713.88;10448504;28;20247;-63
2022/10/05 08:07:03;;;;;;;3.25;1.10;;;;;;;19.41;56.26;96647.44;10444148;28;20196;-65
2022/10/05 08:12:26;;;;;;;2.85;1.30;;;;;;;19.40;55.52;96645.00;10449931;28;20196;-62
2022/10/05 08:17:45;;;;;;;2.13;1.20;;;;;;;19.65;55.67;96658.31;10448810;28;20231;-63
2022/10/05 08:22:55;;;;;;;3.40;1.13;;;;;;;19.65;58.17;96721.28;10447412;28;20254;-60
2022/10/05 08:28:16;;;;;;;5.18;1.10;;;;;;;21.30;51.21;96616.09;10454855;22;20693;-75
2022/10/05 08:33:17;;;;;;;2.10;1.13;;;;;;;21.00;52.23;96646.19;10450882;28;20187;-74
2022/10/05 08:38:24;;;;;;;1.83;0.90;;;;;;;21.51;53.70;96692.06;10450840;28;20212;-75
2022/10/05 08:43:40;;;;;;;4.90;1.30;;;;;;;20.92;52.71;96656.34;10448749;28;20227;-75
2022/10/05 08:48:56;;;;;;;1.42;1.30;;;;;;;20.51;52.13;96628.53;10450430;28;20218;-74
2022/10/05 08:54:03;;;;;;;2.90;1.23;;;;;;;20.59;54.46;96674.28;10451076;28;20210;-75
2022/10/05 08:59:28;;;;;;;2.55;1.27;;;;;;;20.05;53.37;96635.97;10451581;28;20200;-75
2022/10/05 09:04:45;;;;;;;2.40;1.20;;;;;;;19.09;56.08;96662.53;10449723;28;20224;-75
2022/10/05 09:10:23;;;;;;;2.88;1.23;;;;;;;19.22;56.90;96686.38;10449768;28;20600;-75
2022/10/05 09:15:46;;;;;;;1.75;1.17;;;;;;;19.69;56.10;96679.97;10451049;28;20215;-74
2022/10/05 09:20:52;;;;;;;2.95;1.58;;;;;;;20.25;57.43;96710.25;10450533;28;20206;-75
2022/10/05 09:25:58;;;;;;;3.13;1.27;;;;;;;19.93;55.68;96660.59;10449532;28;20196;-74
2022/10/05 09:31:12;;;;;;;3.85;1.50;;;;;;;19.57;55.50;96637.31;10448936;28;20321;-74
2022/10/05 09:36:29;;;;;;;3.00;1.20;;;;;;;20.27;54.12;96625.72;10449766;28;20214;-74
2022/10/05 09:41:29;;;;;;;1.85;1.13;;;;;;;19.98;56.41;96664.44;10448071;28;20216;-75
2022/10/05 09:46:54;;;;;;;1.50;1.10;;;;;;;19.81;53.62;96609.16;10449578;28;20668;-74
2022/10/05 09:52:05;;;;;;;2.08;1.42;;;;;;;20.11;53.93;96621.78;10449525;28;20188;-74
2022/10/05 09:57:14;;;;;;;2.40;1.42;;;;;;;19.23;56.14;96648.19;10448841;28;20664;-75
2022/10/05 10:02:37;;;;;;;1.35;1.20;;;;;;;19.36;57.46;96687.13;10448958;28;20212;-75
2022/10/05 10:07:57;;;;;;;2.00;1.40;;;;;;;19.64;55.33;96645.25;10448259;28;20280;-75
2022/10/05 10:13:20;;;;;;;1.70;1.30;;;;;;;19.78;55.37;96658.28;10446662;28;20670;-75
2022/10/05 10:18:47;;;;;;;3.97;1.48;;;;;;;19.70;55.47;96661.16;10447567;28;20278;-75
2022/10/05 10:24:15;;;;;;;2.10;1.42;;;;;;;19.91;55.78;96673.28;10446741;28;20243;-75
2022/10/05 10:29:34;;;;;;;2.72;1.83;;;;;;;20.27;54.73;96654.97;10403364;28;20231;-75
2022/10/05 10:34:52;;;;;;;3.17;1.40;;;;;;;19.54;57.16;96696.19;10448207;28;20222;-74
2022/10/05 10:40:29;;;;;;;4.05;1.70;;;;;;;19.57;56.54;96670.03;10448471;28;20191;-74
2022/10/05 10:45:40;;;;;;;2.10;1.42;;;;;;;20.17;56.15;96689.22;10448474;28;20223;-75
2022/10/05 10:50:47;;;;;;;3.20;1.48;;;;;;;19.70;56.84;96687.72;10446748;28;20219;-75
2022/10/05 10:55:59;;;;;;;2.60;1.58;;;;;;;19.06;58.70;96726.69;10447727;28;20230;-75
2022/10/05 11:01:10;;;;;;;4.10;1.83;;;;;;;19.38;58.91;96729.41;10446873;28;20199;-74
2022/10/05 11:06:17;;;;;;;1.98;1.55;;;;;;;18.91;59.06;96711.00;10446755;28;20196;-74
2022/10/05 11:11:49;;;;;;;4.43;1.45;;;;;;;18.46;61.95;96756.78;10446470;28;20242;-75
2022/10/05 11:17:09;;;;;;;2.65;1.70;;;;;;;17.90;60.06;96704.19;10446187;28;20656;-75
2022/10/05 11:22:13;;;;;;;5.90;1.67;;;;;;;18.83;59.55;96722.63;10449017;28;20244;-76
2022/10/05 11:27:52;;;;;;;4.00;1.70;;;;;;;18.72;59.00;96702.84;10454577;28;20596;-76
2022/10/05 11:33:10;;;;;;;5.60;1.77;;;;;;;18.03;59.77;96701.53;10450255;28;20316;-76
2022/10/05 11:38:37;;;;;;;4.13;1.65;;;;;;;17.51;63.12;96753.41;10454420;28;20310;-76
2022/10/05 11:43:46;;;;;;;2.28;1.67;;;;;;;17.41;64.20;96759.91;10454302;28;20299;-75
2022/10/05 11:49:08;;;;;;;3.08;1.95;;;;;;;17.04;65.35;96782.34;10453801;28;20731;-76
2022/10/05 11:54:08;;;;;;;3.35;1.90;;;;;;;17.23;65.31;96783.47;10454237;28;20275;-76
2022/10/05 11:59:27;;;;;;;6.45;1.88;;;;;;;17.43;63.12;96738.53;10453749;28;20210;-76
2022/10/05 12:04:44;;;;;;;3.42;1.75;;;;;;;18.26;61.65;96727.63;10453025;28;20311;-76
2022/10/05 12:10:13;;;;;;;4.38;1.67;;;;;;;18.63;60.82;96720.03;10453484;28;20286;-75
2022/10/05 12:15:26;;;;;;;4.70;2.15;;;;;;;18.49;61.21;96711.28;10452530;28;20216;-75
2022/10/05 12:20:49;;;;;;;8.07;1.70;;;;;;;18.65;60.25;96686.16;10451653;28;20223;-76
2022/10/05 12:26:03;;;;;;;3.30;2.03;;;;;;;19.21;58.63;96684.75;10452103;28;20238;-76
2022/10/05 12:31:32;;;;;;;1.70;1.60;;;;;;;19.46;59.22;96691.97;10451107;28;20192;-75
2022/10/05 12:36:39;;;;;;;2.75;1.70;;;;;;;20.57;56.55;96657.75;10451837;28;20219;-75
2022/10/05 12:41:44;;;;;;;4.95;2.00;;;;;;;20.31;56.57;96648.19;10450589;28;20254;-75
2022/10/05 12:47:00;;;;;;;6.22;1.73;;;;;;;20.53;54.91;96616.63;10451992;28;20188;-75
2022/10/05 12:52:03;;;;;;;4.07;1.73;;;;;;;20.88;54.66;96624.03;10450400;28;20187;-75
2022/10/05 12:57:32;;;;;;;3.58;1.95;;;;;;;19.95;56.97;96641.75;10451629;28;20207;-75
2022/10/05 13:02:46;;;;;;;2.72;2.05;;;;;;;19.60;58.96;96674.91;10451081;28;20220;-75
2022/10/05 13:08:11;;;;;;;3.63;2.20;;;;;;;19.12;60.91;96704.59;10450966;28;20288;-75
2022/10/05 13:13:43;;;;;;;6.35;2.20;;;;;;;19.22;60.69;96697.00;10408483;28;20184;-75
2022/10/05 13:19:18;;;;;;;4.07;1.90;;;;;;;20.61;57.09;96645.63;10393931;28;20200;-75
2022/10/05 13:24:27;;;;;;;3.28;1.80;;;;;;;21.46;56.48;96645.81;10392290;28;20333;-75
2022/10/05 13:29:32;;;;;;;3.10;1.80;;;;;;;21.40;55.79;96633.38;10407669;28;20243;-76
2022/10/05 13:34:40;;;;;;;3.85;2.13;;;;;;;20.25;57.64;96641.09;10407532;28;20176;-75
2022/10/05 13:40:09;;;;;;;6.28;2.10;;;;;;;19.16;62.31;96710.31;10407363;28;20192;-75
2022/10/05 13:45:19;;;;;;;1.98;1.70;;;;;;;19.39;62.04;96709.78;10391780;28;20739;-76
2022/10/05 13:50:23;;;;;;;2.95;1.77;;;;;;;19.56;61.97;96705.59;10408817;28;20188;-76
2022/10/05 13:55:38;;;;;;;6.07;2.03;;;;;;;18.53;65.26;96746.19;10407826;28;20188;-75
2022/10/05 14:00:54;;;;;;;5.47;2.38;;;;;;;19.11;63.96;96728.72;10407848;28;20593;-75
2022/10/05 14:05:56;;;;;;;4.65;2.45;;;;;;;19.37;62.70;96714.50;10407363;28;20227;-75
2022/10/05 14:10:57;;;;;;;20.42;16.15;;;;;;;18.71;64.04;96726.94;10407898;28;20271;-75
2022/10/05 14:16:11;;;;;;;6.35;2.10;;;;;;;19.00;63.97;96741.59;10437944;28;20195;-75
2022/10/05 14:21:11;;;;;;;4.72;2.63;;;;;;;18.88;64.27;96740.63;10448174;28;20687;-75
2022/10/05 14:26:24;;;;;;;5.47;2.30;;;;;;;18.38;64.40;96721.69;10448330;28;20212;-75
2022/10/05 14:31:54;;;;;;;4.88;2.55;;;;;;;18.20;65.91;96744.38;10446956;28;20208;-75
2022/10/05 14:36:57;;;;;;;4.63;2.67;;;;;;;18.06;67.25;96759.44;10445820;28;20212;-76
2022/10/05 14:42:04;;;;;;;4.25;2.55;;;;;;;18.19;67.72;96766.59;10443077;28;20228;-84
2022/10/05 14:47:16;;;;;;;4.47;2.45;;;;;;;17.83;70.53;96791.59;10434418;28;20223;-76
2022/10/05 14:52:28;;;;;;;5.80;2.80;;;;;;;17.73;70.52;96777.91;10442144;28;20349;-84
2022/10/05 14:57:50;;;;;;;6.78;2.95;;;;;;;18.18;70.26;96773.72;10479214;28;20277;-83
2022/10/05 15:03:06;;;;;;;10.30;2.97;;;;;;;18.42;68.92;96760.06;10415465;28;20217;-83
2022/10/05 15:08:32;;;;;;;8.25;3.33;;;;;;;17.97;70.85;96773.91;10453850;28;20648;-83
2022/10/05 15:13:41;;;;;;;10.07;2.85;;;;;;;17.68;71.48;96769.75;10490361;28;20245;-85
2022/10/05 15:19:15;;;;;;;6.53;2.72;;;;;;;17.51;72.24;96769.31;10467160;28;20542;-83
2022/10/05 15:24:51;;;;;;;3.90;3.17;;;;;;;17.45;72.24;96774.34;10455616;28;20226;-84
2022/10/05 15:36:16;;;;;;;8.88;4.72;;;;;;;15.68;80.42;96821.03;10416489;28;20205;-85
2022/10/05 15:41:19;;;;;;;16.63;9.65;;;;;;;15.80;79.63;96799.44;10393680;28;20241;-84
2022/10/05 15:46:36;;;;;;;7.57;4.25;;;;;;;15.41;81.30;96800.59;10401262;28;20204;-80
2022/10/05 15:51:54;;;;;;;7.00;3.22;;;;;;;15.29;83.39;96802.91;10391573;28;20236;-77
2022/10/05 15:57:07;;;;;;;3.38;2.80;;;;;;;15.28;83.39;96795.97;10397148;28;20235;-76
2022/10/05 16:02:17;;;;;;;4.28;2.72;;;;;;;14.98;85.16;96796.81;10454976;28;20211;-76
2022/10/05 16:13:13;;;;;;;4.45;2.70;;;;;;;14.69;86.66;96794.97;10446636;28;20198;-76
2022/10/05 16:18:32;;;;;;;4.80;2.67;;;;;;;14.72;86.91;96791.19;10457782;28;20212;-75
2022/10/05 16:23:46;;;;;;;7.70;2.85;;;;;;;14.58;87.36;96788.31;10450142;28;20367;-75
2022/10/05 16:29:02;;;;;;;4.50;3.00;;;;;;;14.44;88.42;96786.44;10437757;28;20231;-75
2022/10/05 16:34:24;;;;;;;9.45;5.22;;;;;;;14.32;89.56;96785.25;10462031;28;20860;-76
2022/10/05 16:39:43;;;;;;;5.82;3.67;;;;;;;14.24;89.88;96784.34;10465677;28;20228;-75
2022/10/05 16:45:06;;;;;;;5.30;2.60;;;;;;;14.23;89.89;96771.34;10454914;28;20215;-75
2022/10/05 16:50:19;;;;;;;5.45;3.22;;;;;;;14.07;91.25;96778.38;10452238;28;20191;-76
2022/10/05 16:55:41;;;;;;;5.07;2.50;;;;;;;14.16;90.21;96768.56;10455289;28;20188;-75
2022/10/05 17:01:05;;;;;;;8.85;3.00;;;;;;;14.06;91.75;96770.66;10435809;28;20737;-75
2022/10/05 17:06:13;;;;;;;5.07;3.20;;;;;;;13.98;92.65;96789.13;10454757;28;20778;-75
2022/10/05 17:11:38;;;;;;;5.00;3.03;;;;;;;13.84;94.33;96793.34;10452283;28;20539;-75
2022/10/05 17:16:50;;;;;;;8.27;3.35;;;;;;;13.85;95.24;96787.91;10439663;28;20195;-76
2022/10/05 17:21:59;;;;;;;4.55;2.58;;;;;;;13.94;94.47;96791.31;10449833;28;20223;-76
2022/10/05 17:27:20;;;;;;;6.90;2.53;;;;;;;13.89;95.25;96796.28;10450874;28;20232;-75
2022/10/05 17:32:20;;;;;;;3.80;2.67;;;;;;;13.94;94.96;96787.88;10432171;28;20261;-75
2022/10/05 17:37:34;;;;;;;3.47;2.72;;;;;;;13.80;96.90;96790.25;10451611;28;20272;-76
2022/10/05 17:42:34;;;;;;;5.68;2.88;;;;;;;13.78;98.00;96797.50;10448538;28;20757;-76
2022/10/05 17:47:58;;;;;;;6.00;3.10;;;;;;;13.83;98.01;96775.94;10451378;28;20261;-76
2022/10/05 17:58:43;;;;;;;7.65;3.25;;;;;;;13.81;98.92;96773.44;10449224;28;20200;-75
2022/10/05 18:03:48;;;;;;;3.83;2.75;;;;;;;13.82;98.96;96774.28;10450635;28;20228;-75
2022/10/05 18:08:48;;;;;;;8.20;2.63;;;;;;;13.98;97.20;96768.06;10448330;28;20196;-75
2022/10/05 18:14:13;;;;;;;4.18;3.10;;;;;;;13.93;97.34;96786.22;10447935;28;20192;-75
2022/10/05 18:19:15;;;;;;;4.78;2.53;;;;;;;13.98;97.35;96795.25;10447425;28;20202;-75
2022/10/05 18:24:28;;;;;;;5.38;2.88;;;;;;;13.86;97.50;96797.47;10449876;28;20306;-75
2022/10/05 18:30:04;;;;;;;8.25;3.42;;;;;;;13.81;97.84;96810.31;10446905;28;20230;-75
2022/10/05 18:35:32;;;;;;;4.18;2.90;;;;;;;13.90;97.06;96809.28;10455449;28;20195;-75
2022/10/05 18:40:41;;;;;;;5.80;3.03;;;;;;;13.73;97.42;96813.81;10457303;28;20207;-75
2022/10/05 18:45:53;;;;;;;3.75;3.08;;;;;;;13.63;98.53;96823.75;10438782;28;20223;-75
2022/10/05 18:51:21;;;;;;;5.22;3.50;;;;;;;13.66;97.99;96827.84;10457560;28;20326;-75
2022/10/05 18:56:43;;;;;;;4.63;3.08;;;;;;;13.64;97.21;96828.03;10438241;28;20192;-75
2022/10/05 19:01:53;;;;;;;4.95;2.50;;;;;;;13.62;96.82;96837.91;10439894;28;20223;-75
2022/10/05 19:07:14;;;;;;;4.72;2.47;;;;;;;13.80;94.53;96819.22;10453367;28;20330;-75
2022/10/05 19:12:25;;;;;;;3.00;2.35;;;;;;;13.97;91.99;96808.59;10452628;28;20683;-75
2022/10/05 19:17:47;;;;;;;2.95;2.28;;;;;;;13.87;93.32;96835.97;10453049;28;20227;-75
2022/10/05 19:23:19;;;;;;;2.95;2.40;;;;;;;13.75;93.45;96845.22;10452809;28;20216;-75
2022/10/05 19:29:11;;;;;;;5.78;2.22;;;;;;;13.77;92.34;96838.00;10427397;28;20250;-75
2022/10/05 19:34:36;;;;;;;6.53;2.20;;;;;;;13.86;91.21;96836.16;10437370;28;20204;-75
2022/10/05 19:40:06;;;;;;;4.22;1.83;;;;;;;14.05;89.43;96833.03;10450763;28;20188;-75
2022/10/05 19:45:20;;;;;;;6.32;2.00;;;;;;;14.09;89.61;96825.63;10415771;28;20323;-85
2022/10/05 19:50:32;;;;;;;5.80;2.08;;;;;;;13.89;90.42;96847.16;10449614;28;20196;-85
2022/10/05 19:55:40;;;;;;;9.55;2.78;;;;;;;14.15;88.82;96840.72;10455975;28;20188;-83
2022/10/05 20:00:44;;;;;;;5.68;2.40;;;;;;;14.16;88.75;96841.53;10457897;28;20563;-85
2022/10/05 20:05:44;;;;;;;2.88;1.90;;;;;;;14.40;86.95;96820.25;10459653;28;20208;-85
2022/10/05 20:11:03;;;;;;;4.57;2.08;;;;;;;14.68;84.95;96811.78;10489383;28;20211;-86
2022/10/05 20:21:58;;;;;;;2.22;1.80;;;;;;;15.02;82.77;96812.28;10454365;28;20730;-85
2022/10/05 20:27:00;;;;;;;3.55;1.70;;;;;;;14.95;82.71;96826.19;10453420;28;20231;-85
2022/10/05 20:32:06;;;;;;;2.83;1.63;;;;;;;14.93;82.21;96841.41;10444038;28;20196;-86
2022/10/05 20:37:09;;;;;;;1.83;1.52;;;;;;;15.06;80.83;96837.31;10453473;28;20212;-85
2022/10/05 20:42:10;;;;;;;2.38;1.67;;;;;;;15.10;80.32;96841.19;10453159;28;20227;-86
2022/10/05 20:47:10;;;;;;;5.63;1.80;;;;;;;14.95;80.78;96854.41;10449572;28;20601;-74
2022/10/05 20:52:13;;;;;;;3.55;1.48;;;;;;;15.02;80.57;96871.13;10438055;28;20188;-75
2022/10/05 20:57:14;;;;;;;3.55;1.40;;;;;;;15.20;79.57;96877.88;10446924;28;20277;-75
2022/10/05 21:02:14;;;;;;;2.58;1.30;;;;;;;15.18;79.81;96886.00;10453937;28;20216;-75
2022/10/05 21:07:16;;;;;;;1.90;1.40;;;;;;;15.41;79.01;96879.81;10451567;28;20206;-75
2022/10/05 21:12:17;;;;;;;4.15;1.52;;;;;;;15.51;78.55;96870.59;10452711;28;20196;-75
2022/10/05 21:17:19;;;;;;;1.48;1.33;;;;;;;15.33;79.24;96893.91;10451309;28;20682;-75
2022/10/05 21:22:19;;;;;;;1.85;1.58;;;;;;;15.22;80.32;96897.84;10450467;28;20208;-75
2022/10/05 21:27:19;;;;;;;1.73;1.42;;;;;;;15.43;80.71;96914.75;10451053;28;20231;-74
2022/10/05 21:32:20;;;;;;;3.72;1.75;;;;;;;15.53;80.78;96925.88;10451590;28;20596;-75
2022/10/05 21:37:20;;;;;;;2.53;1.80;;;;;;;15.49;81.85;96932.50;10433136;28;20711;-75
2022/10/05 21:42:20;;;;;;;3.53;1.58;;;;;;;15.64;82.23;96943.88;10448052;28;20224;-75
2022/10/05 21:47:21;;;;;;;1.92;1.65;;;;;;;15.61;84.12;96959.28;10450275;28;20191;-75
2022/10/05 21:52:21;;;;;;;3.83;1.80;;;;;;;15.73;85.39;96978.97;10448086;28;20199;-75
2022/10/05 21:57:22;;;;;;;2.65;2.10;;;;;;;15.68;86.43;96976.88;10448145;28;20717;-75
2022/10/05 22:02:22;;;;;;;3.05;1.70;;;;;;;15.46;88.61;96998.88;10450636;28;20269;-75
2022/10/05 22:07:23;;;;;;;2.72;1.90;;;;;;;15.45;89.74;97002.50;10445659;28;20737;-74
2022/10/05 22:12:25;;;;;;;3.53;2.20;;;;;;;15.54;89.82;97012.00;10449295;28;20565;-75
2022/10/05 22:17:30;;;;;;;3.75;1.80;;;;;;;15.61;89.78;97007.63;10450234;28;20220;-75
2022/10/05 22:22:32;;;;;;;2.78;2.10;;;;;;;15.56;90.45;97009.16;10446574;28;20590;-75
2022/10/05 22:27:32;;;;;;;2.88;1.80;;;;;;;15.74;88.73;96995.63;10449511;28;20228;-76
2022/10/05 22:32:33;;;;;;;2.80;1.85;;;;;;;15.78;88.51;96989.81;10448146;28;20187;-75
2022/10/05 22:37:36;;;;;;;3.33;1.98;;;;;;;15.66;88.73;96999.97;10448631;28;20222;-75
2022/10/05 22:42:37;;;;;;;4.10;1.63;;;;;;;15.66;89.30;96999.97;10447636;28;20646;-75
2022/10/05 22:47:38;;;;;;;2.78;2.00;;;;;;;15.52;89.14;97012.16;10449116;28;20216;-74
2022/10/05 22:52:39;;;;;;;3.08;1.50;;;;;;;15.37;90.97;97016.59;10447823;28;20195;-75
2022/10/05 22:57:40;;;;;;;4.25;1.67;;;;;;;15.50;91.64;97027.38;10448321;28;20188;-75
2022/10/05 23:02:41;;;;;;;3.30;1.92;;;;;;;15.46;91.76;97031.38;10447819;28;20761;-75
2022/10/05 23:07:45;;;;;;;2.35;1.83;;;;;;;15.56;91.49;97030.28;10447148;28;20184;-75
2022/10/05 23:12:53;;;;;;;4.28;2.00;;;;;;;15.42;93.15;97042.47;10447240;28;20699;-75
2022/10/05 23:17:55;;;;;;;4.55;2.00;;;;;;;15.51;93.27;97044.88;10448900;28;20188;-75
2022/10/05 23:22:55;;;;;;;3.13;1.90;;;;;;;15.76;91.86;97041.16;10453079;28;20228;-75
2022/10/05 23:27:55;;;;;;;2.13;1.90;;;;;;;15.74;92.69;97059.00;10456141;28;20231;-75
2022/10/05 23:32:56;;;;;;;3.88;1.98;;;;;;;15.81;92.20;97063.41;10455109;28;20250;-75
2022/10/05 23:37:56;;;;;;;3.70;1.88;;;;;;;15.75;92.32;97058.00;10455234;28;20295;-75
2022/10/05 23:42:57;;;;;;;2.15;1.58;;;;;;;15.75;92.26;97060.66;10455369;28;20223;-75
2022/10/05 23:47:57;;;;;;;4.28;2.17;;;;;;;15.60;93.22;97073.84;10453328;28;20199;-75
2022/10/05 23:52:57;;;;;;;4.97;1.80;;;;;;;15.63;93.18;97076.13;10454177;28;20545;-75
2022/10/05 23:57:58;;;;;;;2.78;1.63;;;;;;;15.70;92.81;97072.56;10453958;28;20675;-75
